sensor_id;sensor_type;location;lat;lon;timestamp;P1;durP1;ratioP1;P2;durP2;ratioP2
14740;SDS011;7462;53.530;9.414;2023-04-03T00:01:01;6.93;;;2.03;;
14740;SDS011;7462;53.530;9.414;2023-04-03T00:03:29;4.43;;;1.70;;
14740;SDS011;7462;53.530;9.414;2023-04-03T00:05:57;6.30;;;2.20;;
14740;SDS011;7462;53.530;9.414;2023-04-03T00:08:25;2.97;;;1.73;;
14740;SDS011;7462;53.530;9.414;2023-04-03T00:10:53;6.10;;;1.97;;
14740;SDS011;7462;53.530;9.414;2023-04-03T00:13:22;4.73;;;1.60;;
14740;SDS011;7462;53.530;9.414;2023-04-03T00:15:52;4.23;;;1.83;;
14740;SDS011;7462;53.530;9.414;2023-04-03T00:18:21;4.33;;;2.13;;
14740;SDS011;7462;53.530;9.414;2023-04-03T00:20:49;4.23;;;1.60;;
14740;SDS011;7462;53.530;9.414;2023-04-03T00:23:17;5.53;;;2.00;;
14740;SDS011;7462;53.530;9.414;2023-04-03T00:25:45;5.10;;;1.80;;
14740;SDS011;7462;53.530;9.414;2023-04-03T00:28:13;6.60;;;2.00;;
14740;SDS011;7462;53.530;9.414;2023-04-03T00:30:41;4.60;;;2.00;;
14740;SDS011;7462;53.530;9.414;2023-04-03T00:33:11;6.40;;;1.90;;
14740;SDS011;7462;53.530;9.414;2023-04-03T00:35:40;6.93;;;2.37;;
14740;SDS011;7462;53.530;9.414;2023-04-03T00:38:08;4.93;;;1.50;;
14740;SDS011;7462;53.530;9.414;2023-04-03T00:40:38;9.63;;;1.97;;
14740;SDS011;7462;53.530;9.414;2023-04-03T00:43:10;7.73;;;1.97;;
14740;SDS011;7462;53.530;9.414;2023-04-03T00:45:41;5.17;;;2.10;;
14740;SDS011;7462;53.530;9.414;2023-04-03T00:48:13;4.33;;;1.77;;
14740;SDS011;7462;53.530;9.414;2023-04-03T00:50:44;4.10;;;1.73;;
14740;SDS011;7462;53.530;9.414;2023-04-03T00:53:14;4.27;;;1.70;;
14740;SDS011;7462;53.530;9.414;2023-04-03T00:55:47;4.10;;;1.60;;
14740;SDS011;7462;53.530;9.414;2023-04-03T00:58:15;4.40;;;1.90;;
14740;SDS011;7462;53.530;9.414;2023-04-03T01:00:48;6.30;;;1.87;;
14740;SDS011;7462;53.530;9.414;2023-04-03T01:03:24;6.00;;;1.97;;
14740;SDS011;7462;53.530;9.414;2023-04-03T01:05:53;4.77;;;2.10;;
14740;SDS011;7462;53.530;9.414;2023-04-03T01:08:21;6.13;;;1.93;;
14740;SDS011;7462;53.530;9.414;2023-04-03T01:10:49;5.53;;;2.70;;
14740;SDS011;7462;53.530;9.414;2023-04-03T01:13:21;3.60;;;1.63;;
14740;SDS011;7462;53.530;9.414;2023-04-03T01:15:51;5.43;;;1.77;;
14740;SDS011;7462;53.530;9.414;2023-04-03T01:18:20;5.47;;;2.07;;
14740;SDS011;7462;53.530;9.414;2023-04-03T01:24:00;10.57;;;2.17;;
14740;SDS011;7462;53.530;9.414;2023-04-03T01:26:38;5.30;;;1.87;;
14740;SDS011;7462;53.530;9.414;2023-04-03T01:29:07;3.73;;;1.50;;
14740;SDS011;7462;53.530;9.414;2023-04-03T01:31:45;4.53;;;1.60;;
14740;SDS011;7462;53.530;9.414;2023-04-03T01:34:18;4.97;;;1.63;;
14740;SDS011;7462;53.530;9.414;2023-04-03T01:36:48;5.90;;;2.20;;
14740;SDS011;7462;53.530;9.414;2023-04-03T01:39:16;5.63;;;1.97;;
14740;SDS011;7462;53.530;9.414;2023-04-03T01:41:45;9.33;;;2.37;;
14740;SDS011;7462;53.530;9.414;2023-04-03T01:44:20;4.27;;;1.80;;
14740;SDS011;7462;53.530;9.414;2023-04-03T01:46:49;5.23;;;2.07;;
14740;SDS011;7462;53.530;9.414;2023-04-03T01:49:19;7.53;;;2.17;;
14740;SDS011;7462;53.530;9.414;2023-04-03T01:51:47;6.53;;;1.80;;
14740;SDS011;7462;53.530;9.414;2023-04-03T01:54:15;3.37;;;2.17;;
14740;SDS011;7462;53.530;9.414;2023-04-03T01:56:44;5.97;;;2.30;;
14740;SDS011;7462;53.530;9.414;2023-04-03T01:59:12;4.47;;;2.27;;
14740;SDS011;7462;53.530;9.414;2023-04-03T02:01:43;3.17;;;1.93;;
14740;SDS011;7462;53.530;9.414;2023-04-03T02:04:13;6.77;;;2.40;;
14740;SDS011;7462;53.530;9.414;2023-04-03T02:06:41;5.13;;;1.83;;
14740;SDS011;7462;53.530;9.414;2023-04-03T02:09:09;5.10;;;1.87;;
14740;SDS011;7462;53.530;9.414;2023-04-03T02:11:37;6.43;;;2.40;;
14740;SDS011;7462;53.530;9.414;2023-04-03T02:14:06;5.00;;;1.90;;
14740;SDS011;7462;53.530;9.414;2023-04-03T02:16:34;5.03;;;2.50;;
14740;SDS011;7462;53.530;9.414;2023-04-03T02:19:03;5.00;;;2.17;;
14740;SDS011;7462;53.530;9.414;2023-04-03T02:21:32;4.73;;;2.13;;
14740;SDS011;7462;53.530;9.414;2023-04-03T02:24:00;4.13;;;2.00;;
14740;SDS011;7462;53.530;9.414;2023-04-03T02:26:28;6.60;;;2.10;;
14740;SDS011;7462;53.530;9.414;2023-04-03T02:28:56;5.53;;;2.10;;
14740;SDS011;7462;53.530;9.414;2023-04-03T02:31:24;3.67;;;2.10;;
14740;SDS011;7462;53.530;9.414;2023-04-03T02:33:53;6.37;;;2.73;;
14740;SDS011;7462;53.530;9.414;2023-04-03T02:36:21;5.03;;;2.37;;
14740;SDS011;7462;53.530;9.414;2023-04-03T02:38:55;5.17;;;2.30;;
14740;SDS011;7462;53.530;9.414;2023-04-03T02:41:23;5.80;;;2.30;;
14740;SDS011;7462;53.530;9.414;2023-04-03T02:43:58;3.87;;;2.10;;
14740;SDS011;7462;53.530;9.414;2023-04-03T02:46:26;4.13;;;1.80;;
14740;SDS011;7462;53.530;9.414;2023-04-03T02:48:55;4.47;;;2.60;;
14740;SDS011;7462;53.530;9.414;2023-04-03T02:51:23;5.10;;;2.90;;
14740;SDS011;7462;53.530;9.414;2023-04-03T02:53:52;7.53;;;3.60;;
14740;SDS011;7462;53.530;9.414;2023-04-03T02:56:26;6.27;;;2.90;;
14740;SDS011;7462;53.530;9.414;2023-04-03T02:58:54;6.17;;;2.60;;
14740;SDS011;7462;53.530;9.414;2023-04-03T03:01:22;6.40;;;2.43;;
14740;SDS011;7462;53.530;9.414;2023-04-03T03:03:51;6.13;;;2.40;;
14740;SDS011;7462;53.530;9.414;2023-04-03T03:06:19;5.10;;;2.70;;
14740;SDS011;7462;53.530;9.414;2023-04-03T03:08:47;5.97;;;2.87;;
14740;SDS011;7462;53.530;9.414;2023-04-03T03:11:15;7.43;;;2.57;;
14740;SDS011;7462;53.530;9.414;2023-04-03T03:13:45;5.23;;;2.70;;
14740;SDS011;7462;53.530;9.414;2023-04-03T03:16:13;6.23;;;3.00;;
14740;SDS011;7462;53.530;9.414;2023-04-03T03:18:41;4.37;;;2.50;;
14740;SDS011;7462;53.530;9.414;2023-04-03T03:21:10;5.77;;;2.70;;
14740;SDS011;7462;53.530;9.414;2023-04-03T03:23:38;8.37;;;2.93;;
14740;SDS011;7462;53.530;9.414;2023-04-03T03:26:07;7.63;;;3.27;;
14740;SDS011;7462;53.530;9.414;2023-04-03T03:28:38;7.57;;;2.80;;
14740;SDS011;7462;53.530;9.414;2023-04-03T03:31:09;6.60;;;2.20;;
14740;SDS011;7462;53.530;9.414;2023-04-03T03:33:39;5.73;;;2.90;;
14740;SDS011;7462;53.530;9.414;2023-04-03T03:36:07;7.80;;;3.17;;
14740;SDS011;7462;53.530;9.414;2023-04-03T03:38:35;5.90;;;2.57;;
14740;SDS011;7462;53.530;9.414;2023-04-03T03:41:04;3.80;;;2.27;;
14740;SDS011;7462;53.530;9.414;2023-04-03T03:43:34;4.73;;;2.23;;
14740;SDS011;7462;53.530;9.414;2023-04-03T03:46:04;5.50;;;2.40;;
14740;SDS011;7462;53.530;9.414;2023-04-03T03:48:34;5.60;;;2.93;;
14740;SDS011;7462;53.530;9.414;2023-04-03T03:51:02;7.37;;;2.80;;
14740;SDS011;7462;53.530;9.414;2023-04-03T03:53:34;8.80;;;2.63;;
14740;SDS011;7462;53.530;9.414;2023-04-03T03:56:05;7.80;;;3.30;;
14740;SDS011;7462;53.530;9.414;2023-04-03T03:58:36;5.20;;;2.70;;
14740;SDS011;7462;53.530;9.414;2023-04-03T04:01:04;5.93;;;3.03;;
14740;SDS011;7462;53.530;9.414;2023-04-03T04:03:40;7.07;;;2.83;;
14740;SDS011;7462;53.530;9.414;2023-04-03T04:06:11;9.57;;;3.30;;
14740;SDS011;7462;53.530;9.414;2023-04-03T04:08:39;8.07;;;2.90;;
14740;SDS011;7462;53.530;9.414;2023-04-03T04:11:10;5.90;;;3.13;;
14740;SDS011;7462;53.530;9.414;2023-04-03T04:13:39;4.77;;;2.80;;
14740;SDS011;7462;53.530;9.414;2023-04-03T04:16:10;7.50;;;3.57;;
14740;SDS011;7462;53.530;9.414;2023-04-03T04:18:39;4.37;;;2.70;;
14740;SDS011;7462;53.530;9.414;2023-04-03T04:21:07;6.23;;;2.90;;
14740;SDS011;7462;53.530;9.414;2023-04-03T04:23:37;6.63;;;2.97;;
14740;SDS011;7462;53.530;9.414;2023-04-03T04:26:05;8.13;;;3.40;;
14740;SDS011;7462;53.530;9.414;2023-04-03T04:28:37;7.73;;;4.10;;
14740;SDS011;7462;53.530;9.414;2023-04-03T04:31:05;5.93;;;3.40;;
14740;SDS011;7462;53.530;9.414;2023-04-03T04:33:35;6.20;;;3.80;;
14740;SDS011;7462;53.530;9.414;2023-04-03T04:36:06;6.60;;;3.97;;
14740;SDS011;7462;53.530;9.414;2023-04-03T04:38:34;6.27;;;3.47;;
14740;SDS011;7462;53.530;9.414;2023-04-03T04:41:02;7.60;;;4.03;;
14740;SDS011;7462;53.530;9.414;2023-04-03T04:43:31;5.17;;;3.63;;
14740;SDS011;7462;53.530;9.414;2023-04-03T04:46:00;7.30;;;4.40;;
14740;SDS011;7462;53.530;9.414;2023-04-03T04:48:31;6.57;;;3.80;;
14740;SDS011;7462;53.530;9.414;2023-04-03T04:51:01;8.27;;;4.10;;
14740;SDS011;7462;53.530;9.414;2023-04-03T04:53:30;7.20;;;3.60;;
14740;SDS011;7462;53.530;9.414;2023-04-03T04:55:59;10.07;;;4.20;;
14740;SDS011;7462;53.530;9.414;2023-04-03T04:58:28;8.33;;;4.10;;
14740;SDS011;7462;53.530;9.414;2023-04-03T05:01:00;8.33;;;3.73;;
14740;SDS011;7462;53.530;9.414;2023-04-03T05:03:30;6.53;;;3.50;;
14740;SDS011;7462;53.530;9.414;2023-04-03T05:05:59;9.03;;;3.30;;
14740;SDS011;7462;53.530;9.414;2023-04-03T05:08:31;5.67;;;3.70;;
14740;SDS011;7462;53.530;9.414;2023-04-03T05:10:59;4.70;;;3.30;;
14740;SDS011;7462;53.530;9.414;2023-04-03T05:13:30;9.13;;;3.57;;
14740;SDS011;7462;53.530;9.414;2023-04-03T05:15:58;5.67;;;3.40;;
14740;SDS011;7462;53.530;9.414;2023-04-03T05:18:27;6.43;;;3.87;;
14740;SDS011;7462;53.530;9.414;2023-04-03T05:20:58;7.07;;;3.43;;
14740;SDS011;7462;53.530;9.414;2023-04-03T05:23:26;7.47;;;3.60;;
14740;SDS011;7462;53.530;9.414;2023-04-03T05:25:58;7.53;;;3.40;;
14740;SDS011;7462;53.530;9.414;2023-04-03T05:28:27;7.67;;;3.20;;
14740;SDS011;7462;53.530;9.414;2023-04-03T05:30:56;7.03;;;3.30;;
14740;SDS011;7462;53.530;9.414;2023-04-03T05:33:30;6.70;;;3.57;;
14740;SDS011;7462;53.530;9.414;2023-04-03T05:36:01;6.93;;;3.63;;
14740;SDS011;7462;53.530;9.414;2023-04-03T05:38:32;6.70;;;3.33;;
14740;SDS011;7462;53.530;9.414;2023-04-03T05:41:02;9.83;;;4.50;;
14740;SDS011;7462;53.530;9.414;2023-04-03T05:43:30;7.33;;;4.00;;
14740;SDS011;7462;53.530;9.414;2023-04-03T05:46:01;7.67;;;3.37;;
14740;SDS011;7462;53.530;9.414;2023-04-03T05:48:29;7.27;;;3.17;;
14740;SDS011;7462;53.530;9.414;2023-04-03T05:50:57;5.80;;;3.20;;
14740;SDS011;7462;53.530;9.414;2023-04-03T05:53:27;5.30;;;3.40;;
14740;SDS011;7462;53.530;9.414;2023-04-03T05:56:03;9.30;;;4.17;;
14740;SDS011;7462;53.530;9.414;2023-04-03T05:58:36;6.30;;;4.00;;
14740;SDS011;7462;53.530;9.414;2023-04-03T06:01:05;6.20;;;3.27;;
14740;SDS011;7462;53.530;9.414;2023-04-03T06:03:34;6.27;;;3.10;;
14740;SDS011;7462;53.530;9.414;2023-04-03T06:06:05;6.40;;;3.60;;
14740;SDS011;7462;53.530;9.414;2023-04-03T06:08:34;8.93;;;3.83;;
14740;SDS011;7462;53.530;9.414;2023-04-03T06:11:03;7.10;;;3.70;;
14740;SDS011;7462;53.530;9.414;2023-04-03T06:13:32;9.03;;;4.23;;
14740;SDS011;7462;53.530;9.414;2023-04-03T06:16:01;5.20;;;3.73;;
14740;SDS011;7462;53.530;9.414;2023-04-03T06:18:30;7.90;;;4.17;;
14740;SDS011;7462;53.530;9.414;2023-04-03T06:20:58;6.27;;;3.60;;
14740;SDS011;7462;53.530;9.414;2023-04-03T06:23:27;5.97;;;3.53;;
14740;SDS011;7462;53.530;9.414;2023-04-03T06:25:55;5.77;;;3.20;;
14740;SDS011;7462;53.530;9.414;2023-04-03T06:28:25;5.33;;;2.87;;
14740;SDS011;7462;53.530;9.414;2023-04-03T06:30:53;7.30;;;3.50;;
14740;SDS011;7462;53.530;9.414;2023-04-03T06:33:21;6.10;;;2.77;;
14740;SDS011;7462;53.530;9.414;2023-04-03T06:35:49;7.17;;;3.33;;
14740;SDS011;7462;53.530;9.414;2023-04-03T06:38:23;6.43;;;3.00;;
14740;SDS011;7462;53.530;9.414;2023-04-03T06:40:51;4.97;;;2.80;;
14740;SDS011;7462;53.530;9.414;2023-04-03T06:43:19;8.43;;;2.60;;
14740;SDS011;7462;53.530;9.414;2023-04-03T06:45:54;6.07;;;3.10;;
14740;SDS011;7462;53.530;9.414;2023-04-03T06:48:22;7.63;;;2.40;;
14740;SDS011;7462;53.530;9.414;2023-04-03T06:50:50;4.77;;;3.03;;
14740;SDS011;7462;53.530;9.414;2023-04-03T06:53:18;4.97;;;2.87;;
14740;SDS011;7462;53.530;9.414;2023-04-03T06:55:46;3.30;;;2.40;;
14740;SDS011;7462;53.530;9.414;2023-04-03T06:58:14;5.77;;;2.23;;
14740;SDS011;7462;53.530;9.414;2023-04-03T07:00:44;6.00;;;2.63;;
14740;SDS011;7462;53.530;9.414;2023-04-03T07:03:14;5.37;;;2.17;;
14740;SDS011;7462;53.530;9.414;2023-04-03T07:05:43;4.90;;;2.60;;
14740;SDS011;7462;53.530;9.414;2023-04-03T07:08:12;5.23;;;2.33;;
14740;SDS011;7462;53.530;9.414;2023-04-03T07:10:40;5.67;;;2.10;;
14740;SDS011;7462;53.530;9.414;2023-04-03T07:13:08;4.43;;;1.90;;
14740;SDS011;7462;53.530;9.414;2023-04-03T07:15:36;5.23;;;2.10;;
14740;SDS011;7462;53.530;9.414;2023-04-03T07:18:04;5.93;;;2.50;;
14740;SDS011;7462;53.530;9.414;2023-04-03T07:20:34;6.13;;;2.27;;
14740;SDS011;7462;53.530;9.414;2023-04-03T07:23:02;4.00;;;1.93;;
14740;SDS011;7462;53.530;9.414;2023-04-03T07:25:30;5.80;;;2.00;;
14740;SDS011;7462;53.530;9.414;2023-04-03T07:28:00;4.17;;;2.10;;
14740;SDS011;7462;53.530;9.414;2023-04-03T07:30:28;6.73;;;2.00;;
14740;SDS011;7462;53.530;9.414;2023-04-03T07:32:56;4.80;;;1.90;;
14740;SDS011;7462;53.530;9.414;2023-04-03T07:35:24;5.33;;;1.80;;
14740;SDS011;7462;53.530;9.414;2023-04-03T07:37:54;3.23;;;1.40;;
14740;SDS011;7462;53.530;9.414;2023-04-03T07:40:22;4.73;;;1.60;;
14740;SDS011;7462;53.530;9.414;2023-04-03T07:42:50;5.77;;;1.60;;
14740;SDS011;7462;53.530;9.414;2023-04-03T07:45:18;2.93;;;1.30;;
14740;SDS011;7462;53.530;9.414;2023-04-03T07:47:46;3.43;;;1.40;;
14740;SDS011;7462;53.530;9.414;2023-04-03T07:50:15;4.63;;;1.43;;
14740;SDS011;7462;53.530;9.414;2023-04-03T07:52:43;4.40;;;1.50;;
14740;SDS011;7462;53.530;9.414;2023-04-03T07:55:13;5.40;;;1.50;;
14740;SDS011;7462;53.530;9.414;2023-04-03T07:57:41;4.57;;;1.20;;
14740;SDS011;7462;53.530;9.414;2023-04-03T08:00:10;3.53;;;1.43;;
14740;SDS011;7462;53.530;9.414;2023-04-03T08:02:40;4.40;;;1.20;;
14740;SDS011;7462;53.530;9.414;2023-04-03T08:05:08;5.20;;;1.80;;
14740;SDS011;7462;53.530;9.414;2023-04-03T08:07:36;4.47;;;1.83;;
14740;SDS011;7462;53.530;9.414;2023-04-03T08:10:05;3.17;;;1.43;;
14740;SDS011;7462;53.530;9.414;2023-04-03T08:12:36;3.27;;;1.47;;
14740;SDS011;7462;53.530;9.414;2023-04-03T08:15:05;3.77;;;1.20;;
14740;SDS011;7462;53.530;9.414;2023-04-03T08:17:34;5.23;;;1.40;;
14740;SDS011;7462;53.530;9.414;2023-04-03T08:20:03;2.30;;;1.10;;
14740;SDS011;7462;53.530;9.414;2023-04-03T08:22:32;2.83;;;1.23;;
14740;SDS011;7462;53.530;9.414;2023-04-03T08:25:01;2.73;;;1.20;;
14740;SDS011;7462;53.530;9.414;2023-04-03T08:27:29;3.13;;;1.10;;
14740;SDS011;7462;53.530;9.414;2023-04-03T08:30:00;3.40;;;1.00;;
14740;SDS011;7462;53.530;9.414;2023-04-03T08:32:30;3.17;;;1.07;;
14740;SDS011;7462;53.530;9.414;2023-04-03T08:34:58;3.30;;;1.20;;
14740;SDS011;7462;53.530;9.414;2023-04-03T08:37:26;4.10;;;1.07;;
14740;SDS011;7462;53.530;9.414;2023-04-03T08:39:54;2.90;;;1.00;;
14740;SDS011;7462;53.530;9.414;2023-04-03T08:42:26;4.10;;;1.00;;
14740;SDS011;7462;53.530;9.414;2023-04-03T08:45:10;3.73;;;1.20;;
14740;SDS011;7462;53.530;9.414;2023-04-03T08:47:42;3.40;;;1.10;;
14740;SDS011;7462;53.530;9.414;2023-04-03T08:50:15;3.00;;;1.17;;
14740;SDS011;7462;53.530;9.414;2023-04-03T08:52:46;1.90;;;1.00;;
14740;SDS011;7462;53.530;9.414;2023-04-03T08:55:20;3.63;;;0.90;;
14740;SDS011;7462;53.530;9.414;2023-04-03T08:57:53;2.17;;;0.80;;
14740;SDS011;7462;53.530;9.414;2023-04-03T09:00:30;2.33;;;0.87;;
14740;SDS011;7462;53.530;9.414;2023-04-03T09:03:02;3.87;;;0.97;;
14740;SDS011;7462;53.530;9.414;2023-04-03T09:05:32;2.57;;;0.90;;
14740;SDS011;7462;53.530;9.414;2023-04-03T09:08:12;3.27;;;0.90;;
14740;SDS011;7462;53.530;9.414;2023-04-03T09:10:48;2.10;;;1.00;;
14740;SDS011;7462;53.530;9.414;2023-04-03T09:13:22;4.00;;;0.90;;
14740;SDS011;7462;53.530;9.414;2023-04-03T09:15:55;2.17;;;0.80;;
14740;SDS011;7462;53.530;9.414;2023-04-03T09:18:26;1.90;;;1.17;;
14740;SDS011;7462;53.530;9.414;2023-04-03T09:21:00;2.20;;;0.80;;
14740;SDS011;7462;53.530;9.414;2023-04-03T09:23:37;2.43;;;0.80;;
14740;SDS011;7462;53.530;9.414;2023-04-03T09:26:13;3.13;;;1.00;;
14740;SDS011;7462;53.530;9.414;2023-04-03T09:28:44;2.10;;;0.63;;
14740;SDS011;7462;53.530;9.414;2023-04-03T09:31:19;1.73;;;0.87;;
14740;SDS011;7462;53.530;9.414;2023-04-03T09:33:50;3.63;;;1.10;;
14740;SDS011;7462;53.530;9.414;2023-04-03T09:39:11;2.90;;;1.17;;
14740;SDS011;7462;53.530;9.414;2023-04-03T09:41:42;2.93;;;1.07;;
14740;SDS011;7462;53.530;9.414;2023-04-03T09:44:24;2.73;;;1.10;;
14740;SDS011;7462;53.530;9.414;2023-04-03T09:46:55;2.60;;;0.90;;
14740;SDS011;7462;53.530;9.414;2023-04-03T09:49:23;2.17;;;0.70;;
14740;SDS011;7462;53.530;9.414;2023-04-03T09:51:51;3.37;;;1.00;;
14740;SDS011;7462;53.530;9.414;2023-04-03T09:57:07;1.57;;;0.83;;
14740;SDS011;7462;53.530;9.414;2023-04-03T09:59:42;1.90;;;0.63;;
14740;SDS011;7462;53.530;9.414;2023-04-03T10:02:31;2.53;;;0.90;;
14740;SDS011;7462;53.530;9.414;2023-04-03T10:05:05;1.70;;;0.90;;
14740;SDS011;7462;53.530;9.414;2023-04-03T10:07:56;3.03;;;0.80;;
14740;SDS011;7462;53.530;9.414;2023-04-03T10:10:36;1.57;;;0.83;;
14740;SDS011;7462;53.530;9.414;2023-04-03T10:13:06;2.77;;;1.30;;
14740;SDS011;7462;53.530;9.414;2023-04-03T10:15:40;1.73;;;0.73;;
14740;SDS011;7462;53.530;9.414;2023-04-03T10:18:18;2.30;;;0.90;;
14740;SDS011;7462;53.530;9.414;2023-04-03T10:20:57;2.70;;;1.00;;
14740;SDS011;7462;53.530;9.414;2023-04-03T10:23:44;2.20;;;0.97;;
14740;SDS011;7462;53.530;9.414;2023-04-03T10:26:17;2.67;;;1.00;;
14740;SDS011;7462;53.530;9.414;2023-04-03T10:29:01;2.73;;;1.00;;
14740;SDS011;7462;53.530;9.414;2023-04-03T10:31:36;2.73;;;0.90;;
14740;SDS011;7462;53.530;9.414;2023-04-03T10:34:10;2.53;;;0.93;;
14740;SDS011;7462;53.530;9.414;2023-04-03T10:36:48;2.97;;;1.10;;
14740;SDS011;7462;53.530;9.414;2023-04-03T10:39:23;1.90;;;1.00;;
14740;SDS011;7462;53.530;9.414;2023-04-03T10:42:02;1.97;;;1.10;;
14740;SDS011;7462;53.530;9.414;2023-04-03T10:44:50;3.03;;;0.80;;
14740;SDS011;7462;53.530;9.414;2023-04-03T10:47:28;2.93;;;1.07;;
14740;SDS011;7462;53.530;9.414;2023-04-03T10:50:10;3.13;;;1.23;;
14740;SDS011;7462;53.530;9.414;2023-04-03T10:52:57;2.10;;;0.90;;
14740;SDS011;7462;53.530;9.414;2023-04-03T10:55:34;3.20;;;1.00;;
14740;SDS011;7462;53.530;9.414;2023-04-03T10:58:06;2.03;;;0.80;;
14740;SDS011;7462;53.530;9.414;2023-04-03T11:00:46;3.63;;;0.90;;
14740;SDS011;7462;53.530;9.414;2023-04-03T11:03:22;2.83;;;1.00;;
14740;SDS011;7462;53.530;9.414;2023-04-03T11:05:59;2.37;;;1.00;;
14740;SDS011;7462;53.530;9.414;2023-04-03T11:08:32;1.67;;;0.80;;
14740;SDS011;7462;53.530;9.414;2023-04-03T11:11:05;3.50;;;1.10;;
14740;SDS011;7462;53.530;9.414;2023-04-03T11:13:37;2.17;;;1.10;;
14740;SDS011;7462;53.530;9.414;2023-04-03T11:16:11;3.47;;;1.07;;
14740;SDS011;7462;53.530;9.414;2023-04-03T11:18:44;3.90;;;1.10;;
14740;SDS011;7462;53.530;9.414;2023-04-03T11:21:19;1.50;;;0.80;;
14740;SDS011;7462;53.530;9.414;2023-04-03T11:23:51;3.53;;;1.03;;
14740;SDS011;7462;53.530;9.414;2023-04-03T11:26:21;3.63;;;0.97;;
14740;SDS011;7462;53.530;9.414;2023-04-03T11:28:53;3.03;;;1.10;;
14740;SDS011;7462;53.530;9.414;2023-04-03T11:31:38;2.13;;;0.80;;
14740;SDS011;7462;53.530;9.414;2023-04-03T11:34:21;2.77;;;0.97;;
14740;SDS011;7462;53.530;9.414;2023-04-03T11:37:02;2.23;;;0.90;;
14740;SDS011;7462;53.530;9.414;2023-04-03T11:39:35;1.93;;;0.90;;
14740;SDS011;7462;53.530;9.414;2023-04-03T11:47:45;2.90;;;1.00;;
14740;SDS011;7462;53.530;9.414;2023-04-03T11:50:31;2.97;;;1.10;;
14740;SDS011;7462;53.530;9.414;2023-04-03T11:53:30;1.93;;;0.83;;
14740;SDS011;7462;53.530;9.414;2023-04-03T11:56:01;2.10;;;0.90;;
14740;SDS011;7462;53.530;9.414;2023-04-03T11:58:31;2.43;;;1.30;;
14740;SDS011;7462;53.530;9.414;2023-04-03T12:01:01;3.10;;;1.30;;
14740;SDS011;7462;53.530;9.414;2023-04-03T12:12:28;2.83;;;1.00;;
14740;SDS011;7462;53.530;9.414;2023-04-03T12:15:21;3.10;;;1.40;;
14740;SDS011;7462;53.530;9.414;2023-04-03T12:17:52;1.80;;;0.90;;
14740;SDS011;7462;53.530;9.414;2023-04-03T12:23:27;2.30;;;1.00;;
14740;SDS011;7462;53.530;9.414;2023-04-03T12:26:04;3.33;;;1.10;;
14740;SDS011;7462;53.530;9.414;2023-04-03T12:28:45;3.60;;;1.37;;
14740;SDS011;7462;53.530;9.414;2023-04-03T12:31:15;2.97;;;1.23;;
14740;SDS011;7462;53.530;9.414;2023-04-03T12:33:49;2.60;;;1.00;;
14740;SDS011;7462;53.530;9.414;2023-04-03T12:36:36;4.17;;;0.90;;
14740;SDS011;7462;53.530;9.414;2023-04-03T12:39:13;2.97;;;1.20;;
14740;SDS011;7462;53.530;9.414;2023-04-03T12:41:53;2.37;;;1.03;;
14740;SDS011;7462;53.530;9.414;2023-04-03T12:44:35;2.53;;;1.00;;
14740;SDS011;7462;53.530;9.414;2023-04-03T12:50:02;3.33;;;1.00;;
14740;SDS011;7462;53.530;9.414;2023-04-03T12:52:33;2.27;;;1.27;;
14740;SDS011;7462;53.530;9.414;2023-04-03T12:55:07;2.60;;;1.03;;
14740;SDS011;7462;53.530;9.414;2023-04-03T12:57:43;2.03;;;0.90;;
14740;SDS011;7462;53.530;9.414;2023-04-03T13:00:19;3.07;;;1.20;;
14740;SDS011;7462;53.530;9.414;2023-04-03T13:02:55;4.07;;;1.20;;
14740;SDS011;7462;53.530;9.414;2023-04-03T13:05:23;1.80;;;0.90;;
14740;SDS011;7462;53.530;9.414;2023-04-03T13:07:54;3.90;;;1.30;;
14740;SDS011;7462;53.530;9.414;2023-04-03T13:10:25;2.37;;;0.90;;
14740;SDS011;7462;53.530;9.414;2023-04-03T13:12:55;2.77;;;1.00;;
14740;SDS011;7462;53.530;9.414;2023-04-03T13:15:28;2.73;;;1.00;;
14740;SDS011;7462;53.530;9.414;2023-04-03T13:17:58;3.07;;;0.97;;
14740;SDS011;7462;53.530;9.414;2023-04-03T13:20:27;2.93;;;1.37;;
14740;SDS011;7462;53.530;9.414;2023-04-03T13:22:57;2.37;;;0.93;;
14740;SDS011;7462;53.530;9.414;2023-04-03T13:25:29;2.87;;;1.00;;
14740;SDS011;7462;53.530;9.414;2023-04-03T13:28:02;3.47;;;1.00;;
14740;SDS011;7462;53.530;9.414;2023-04-03T13:30:40;3.37;;;1.30;;
14740;SDS011;7462;53.530;9.414;2023-04-03T13:33:21;4.13;;;1.10;;
14740;SDS011;7462;53.530;9.414;2023-04-03T13:35:54;2.23;;;1.03;;
14740;SDS011;7462;53.530;9.414;2023-04-03T13:38:24;1.37;;;1.00;;
14740;SDS011;7462;53.530;9.414;2023-04-03T13:40:54;3.47;;;1.33;;
14740;SDS011;7462;53.530;9.414;2023-04-03T13:43:26;1.43;;;1.00;;
14740;SDS011;7462;53.530;9.414;2023-04-03T13:45:57;1.63;;;1.00;;
14740;SDS011;7462;53.530;9.414;2023-04-03T13:48:35;2.40;;;0.90;;
14740;SDS011;7462;53.530;9.414;2023-04-03T13:51:06;2.07;;;1.20;;
14740;SDS011;7462;53.530;9.414;2023-04-03T13:53:46;3.87;;;1.20;;
14740;SDS011;7462;53.530;9.414;2023-04-03T13:56:19;2.40;;;0.80;;
14740;SDS011;7462;53.530;9.414;2023-04-03T13:58:54;2.53;;;1.20;;
14740;SDS011;7462;53.530;9.414;2023-04-03T14:01:33;1.83;;;1.00;;
14740;SDS011;7462;53.530;9.414;2023-04-03T14:04:15;3.37;;;1.10;;
14740;SDS011;7462;53.530;9.414;2023-04-03T14:06:45;2.43;;;1.10;;
14740;SDS011;7462;53.530;9.414;2023-04-03T14:09:13;2.47;;;1.10;;
14740;SDS011;7462;53.530;9.414;2023-04-03T14:11:43;2.70;;;1.10;;
14740;SDS011;7462;53.530;9.414;2023-04-03T14:14:15;3.60;;;1.00;;
14740;SDS011;7462;53.530;9.414;2023-04-03T14:16:46;2.20;;;1.00;;
14740;SDS011;7462;53.530;9.414;2023-04-03T14:19:18;3.47;;;0.90;;
14740;SDS011;7462;53.530;9.414;2023-04-03T14:21:49;1.70;;;0.90;;
14740;SDS011;7462;53.530;9.414;2023-04-03T14:24:19;2.97;;;1.10;;
14740;SDS011;7462;53.530;9.414;2023-04-03T14:26:48;3.10;;;1.10;;
14740;SDS011;7462;53.530;9.414;2023-04-03T14:29:18;3.23;;;0.90;;
14740;SDS011;7462;53.530;9.414;2023-04-03T14:31:48;3.43;;;1.20;;
14740;SDS011;7462;53.530;9.414;2023-04-03T14:34:29;1.90;;;0.90;;
14740;SDS011;7462;53.530;9.414;2023-04-03T14:36:57;1.47;;;0.90;;
14740;SDS011;7462;53.530;9.414;2023-04-03T14:39:25;2.30;;;0.97;;
14740;SDS011;7462;53.530;9.414;2023-04-03T14:41:53;3.37;;;1.20;;
14740;SDS011;7462;53.530;9.414;2023-04-03T14:44:23;6.13;;;1.23;;
14740;SDS011;7462;53.530;9.414;2023-04-03T14:46:51;3.43;;;1.33;;
14740;SDS011;7462;53.530;9.414;2023-04-03T14:49:24;4.93;;;1.03;;
14740;SDS011;7462;53.530;9.414;2023-04-03T14:51:54;2.93;;;1.00;;
14740;SDS011;7462;53.530;9.414;2023-04-03T14:54:23;2.60;;;1.13;;
14740;SDS011;7462;53.530;9.414;2023-04-03T14:56:54;1.20;;;0.80;;
14740;SDS011;7462;53.530;9.414;2023-04-03T14:59:25;3.77;;;1.00;;
14740;SDS011;7462;53.530;9.414;2023-04-03T15:01:55;3.60;;;1.17;;
14740;SDS011;7462;53.530;9.414;2023-04-03T15:04:23;1.70;;;1.40;;
14740;SDS011;7462;53.530;9.414;2023-04-03T15:06:52;3.03;;;1.07;;
14740;SDS011;7462;53.530;9.414;2023-04-03T15:09:21;2.33;;;1.10;;
14740;SDS011;7462;53.530;9.414;2023-04-03T15:11:50;2.70;;;1.30;;
14740;SDS011;7462;53.530;9.414;2023-04-03T15:14:21;1.83;;;1.07;;
14740;SDS011;7462;53.530;9.414;2023-04-03T15:17:04;3.33;;;1.07;;
14740;SDS011;7462;53.530;9.414;2023-04-03T15:19:33;3.77;;;1.00;;
14740;SDS011;7462;53.530;9.414;2023-04-03T15:22:05;2.27;;;1.10;;
14740;SDS011;7462;53.530;9.414;2023-04-03T15:24:33;3.43;;;1.23;;
14740;SDS011;7462;53.530;9.414;2023-04-03T15:27:01;3.30;;;1.20;;
14740;SDS011;7462;53.530;9.414;2023-04-03T15:29:29;3.47;;;1.30;;
14740;SDS011;7462;53.530;9.414;2023-04-03T15:31:57;1.60;;;1.03;;
14740;SDS011;7462;53.530;9.414;2023-04-03T15:34:27;5.03;;;1.37;;
14740;SDS011;7462;53.530;9.414;2023-04-03T15:36:55;2.80;;;1.40;;
14740;SDS011;7462;53.530;9.414;2023-04-03T15:39:24;4.10;;;1.20;;
14740;SDS011;7462;53.530;9.414;2023-04-03T15:41:53;3.00;;;1.27;;
14740;SDS011;7462;53.530;9.414;2023-04-03T15:44:21;2.27;;;0.90;;
14740;SDS011;7462;53.530;9.414;2023-04-03T15:46:49;4.83;;;1.57;;
14740;SDS011;7462;53.530;9.414;2023-04-03T15:49:18;2.20;;;1.30;;
14740;SDS011;7462;53.530;9.414;2023-04-03T15:51:49;5.07;;;1.63;;
14740;SDS011;7462;53.530;9.414;2023-04-03T15:54:17;2.60;;;1.30;;